createdAt,value
2019-03-16T00:01:37.147Z,9.10
2019-03-16T00:05:42.023Z,9.06
2019-03-16T00:09:46.922Z,9.05
2019-03-16T00:13:51.815Z,9.03
2019-03-16T00:17:56.724Z,9.09
2019-03-16T00:22:01.613Z,9.19
2019-03-16T00:26:06.498Z,9.22
2019-03-16T00:30:13.906Z,9.21
2019-03-16T00:34:18.791Z,9.15
2019-03-16T00:38:23.742Z,9.16
2019-03-16T00:42:28.575Z,9.18
2019-03-16T00:46:33.459Z,9.25
2019-03-16T00:50:38.357Z,9.28
2019-03-16T00:54:43.235Z,9.24
2019-03-16T00:58:48.131Z,9.19
2019-03-16T01:02:53.014Z,9.17
2019-03-16T01:06:57.892Z,9.19
2019-03-16T01:11:02.782Z,9.25
2019-03-16T01:15:12.292Z,9.12
2019-03-16T01:19:17.260Z,9.07
2019-03-16T01:23:22.167Z,9.00
2019-03-16T01:27:27.047Z,8.96
2019-03-16T01:31:31.938Z,8.90
2019-03-16T01:35:36.831Z,8.91
2019-03-16T01:39:41.725Z,8.86
2019-03-16T01:43:46.611Z,8.86
2019-03-16T01:47:51.486Z,8.90
2019-03-16T01:51:56.381Z,8.93
2019-03-16T01:56:01.264Z,8.96
2019-03-16T02:00:14.331Z,8.97
2019-03-16T02:04:19.201Z,9.00
2019-03-16T02:08:24.073Z,9.07
2019-03-16T02:12:28.962Z,9.07
2019-03-16T02:16:33.851Z,9.09
2019-03-16T02:20:38.740Z,9.11
2019-03-16T02:24:43.639Z,9.11
2019-03-16T02:28:48.524Z,9.15
2019-03-16T02:32:53.421Z,9.24
2019-03-16T02:36:58.309Z,9.28
2019-03-16T02:41:03.221Z,9.29
2019-03-16T02:45:09.641Z,9.37
2019-03-16T02:49:14.525Z,9.42
2019-03-16T02:53:19.411Z,9.38
2019-03-16T02:57:24.308Z,9.38
2019-03-16T03:01:29.189Z,9.30
2019-03-16T03:05:34.084Z,9.20
2019-03-16T03:09:38.955Z,9.18
2019-03-16T03:13:43.841Z,9.16
2019-03-16T03:17:48.752Z,9.17
2019-03-16T03:21:53.615Z,9.28
2019-03-16T03:25:58.511Z,9.47
2019-03-16T03:30:04.477Z,9.36
2019-03-16T03:34:09.363Z,9.24
2019-03-16T03:38:14.251Z,9.21
2019-03-16T03:42:19.151Z,9.25
2019-03-16T03:46:24.036Z,9.19
2019-03-16T03:50:28.937Z,9.21
2019-03-16T03:54:33.840Z,9.24
2019-03-16T03:58:38.722Z,9.22
2019-03-16T04:02:43.624Z,9.19
2019-03-16T04:06:48.499Z,9.14
2019-03-16T04:10:53.376Z,9.14
2019-03-16T04:14:58.260Z,9.12
2019-03-16T04:19:03.148Z,9.13
2019-03-16T04:23:08.043Z,9.12
2019-03-16T04:27:16.200Z,9.10
2019-03-16T04:31:19.617Z,9.11
2019-03-16T04:35:24.501Z,9.11
2019-03-16T04:39:29.388Z,9.13
2019-03-16T04:43:34.278Z,9.11
2019-03-16T04:47:39.173Z,9.12
2019-03-16T04:51:44.066Z,9.17
2019-03-16T04:55:48.945Z,9.22
2019-03-16T04:59:53.855Z,9.24
2019-03-16T05:03:58.751Z,9.23
2019-03-16T05:08:03.647Z,9.24
2019-03-16T05:12:08.531Z,9.27
2019-03-16T05:16:13.408Z,9.30
2019-03-16T05:20:18.300Z,9.28
2019-03-16T05:24:23.187Z,9.25
2019-03-16T05:28:28.077Z,9.21
2019-03-16T05:32:32.970Z,9.21
2019-03-16T05:36:37.855Z,9.21
2019-03-16T05:40:42.744Z,9.26
2019-03-16T05:44:47.641Z,9.26
2019-03-16T05:48:52.535Z,9.28
2019-03-16T05:52:57.431Z,9.27
2019-03-16T05:57:02.312Z,9.32
2019-03-16T06:01:07.202Z,9.34
2019-03-16T06:05:12.431Z,9.27
2019-03-16T06:09:17.424Z,9.29
2019-03-16T06:13:22.294Z,9.34
2019-03-16T06:17:27.188Z,9.36
2019-03-16T06:21:32.074Z,9.37
2019-03-16T06:25:36.973Z,9.35
2019-03-16T06:29:41.869Z,9.36
2019-03-16T06:33:46.758Z,9.44
2019-03-16T06:37:51.646Z,9.49
2019-03-16T06:41:56.542Z,9.67
2019-03-16T06:46:01.436Z,9.81
2019-03-16T06:50:14.656Z,9.92
2019-03-16T06:54:19.543Z,10.02
2019-03-16T06:58:24.442Z,10.11
2019-03-16T07:02:30.323Z,10.19
2019-03-16T07:06:35.216Z,10.24
2019-03-16T07:10:41.190Z,10.32
2019-03-16T07:14:46.163Z,10.41
2019-03-16T07:18:58.645Z,10.46
2019-03-16T07:22:57.719Z,10.51
2019-03-16T07:27:02.623Z,10.61
2019-03-16T07:31:07.515Z,10.65
2019-03-16T07:35:12.416Z,10.74
2019-03-16T07:39:17.301Z,10.87
2019-03-16T07:43:22.202Z,10.94
2019-03-16T07:47:27.098Z,11.49
2019-03-16T07:51:32.002Z,11.57
2019-03-16T07:55:36.909Z,11.45
2019-03-16T07:59:41.798Z,11.39
2019-03-16T08:03:46.691Z,11.40
2019-03-16T08:07:51.585Z,11.42
2019-03-16T08:11:56.835Z,11.44
2019-03-16T08:16:01.733Z,11.47
2019-03-16T08:20:08.391Z,11.58
2019-03-16T08:24:13.284Z,11.73
2019-03-16T08:28:18.188Z,11.88
2019-03-16T08:32:25.415Z,12.13
2019-03-16T08:36:30.450Z,12.19
2019-03-16T08:40:35.344Z,12.32
2019-03-16T08:44:41.063Z,12.19
2019-03-16T08:48:45.963Z,11.95
2019-03-16T08:52:53.592Z,11.84
2019-03-16T08:56:57.457Z,11.85
2019-03-16T09:01:03.899Z,11.81
2019-03-16T09:05:08.863Z,11.78
2019-03-16T09:09:13.757Z,11.72
2019-03-16T09:13:18.651Z,11.70
2019-03-16T09:17:23.551Z,11.60
2019-03-16T09:21:28.456Z,11.56
2019-03-16T09:25:33.352Z,11.51
2019-03-16T09:29:38.257Z,11.48
2019-03-16T09:33:43.151Z,11.51
2019-03-16T09:37:48.054Z,11.46
2019-03-16T09:41:52.954Z,11.47
2019-03-16T09:45:58.925Z,11.48
2019-03-16T09:50:07.667Z,11.49
2019-03-16T09:54:12.559Z,11.51
2019-03-16T09:58:17.454Z,11.55
2019-03-16T10:02:22.363Z,11.57
2019-03-16T10:06:27.251Z,11.57
2019-03-16T10:10:32.152Z,11.66
2019-03-16T10:14:37.448Z,11.70
2019-03-16T10:18:42.351Z,11.76
2019-03-16T10:22:48.839Z,12.01
2019-03-16T10:26:53.734Z,12.18
2019-03-16T10:30:58.632Z,12.30
2019-03-16T10:35:03.590Z,12.46
2019-03-16T10:39:09.567Z,13.27
2019-03-16T10:43:14.475Z,13.94
2019-03-16T10:47:19.378Z,14.38
2019-03-16T10:51:24.275Z,14.67
2019-03-16T10:55:29.188Z,14.18
2019-03-16T10:59:34.092Z,13.58
2019-03-16T11:03:39.735Z,13.09
2019-03-16T11:07:44.758Z,12.81
2019-03-16T11:11:49.656Z,12.72
2019-03-16T11:15:54.559Z,12.62
2019-03-16T11:19:59.459Z,12.58
2019-03-16T11:24:04.840Z,12.44
2019-03-16T11:28:09.730Z,12.35
2019-03-16T11:32:14.633Z,12.20
2019-03-16T11:36:19.531Z,12.02
2019-03-16T11:40:24.443Z,11.99
2019-03-16T11:44:29.338Z,12.09
2019-03-16T11:48:34.233Z,12.19
2019-03-16T11:52:39.133Z,12.17
2019-03-16T11:56:44.024Z,12.35
2019-03-16T12:00:48.935Z,12.34
2019-03-16T12:04:53.821Z,12.30
2019-03-16T12:08:58.717Z,12.55
2019-03-16T12:13:16.423Z,12.75
2019-03-16T12:17:10.239Z,12.79
2019-03-16T12:21:15.136Z,12.69
2019-03-16T12:25:20.030Z,12.55
2019-03-16T12:29:33.507Z,12.45
2019-03-16T12:33:31.531Z,12.51
2019-03-16T12:37:36.421Z,12.48
2019-03-16T12:41:41.323Z,12.47
2019-03-16T12:45:46.212Z,12.45
2019-03-16T12:49:51.112Z,12.47
2019-03-16T12:53:56.016Z,12.49
2019-03-16T12:58:00.918Z,12.46
2019-03-16T13:02:05.818Z,12.42
2019-03-16T13:06:10.702Z,12.38
2019-03-16T13:10:16.939Z,12.54
2019-03-16T13:14:21.838Z,12.77
2019-03-16T13:18:26.741Z,12.76
2019-03-16T13:22:31.631Z,12.68
2019-03-16T13:26:36.524Z,12.59
2019-03-16T13:30:41.429Z,12.64
2019-03-16T13:34:46.330Z,12.77
2019-03-16T13:38:51.221Z,12.73
2019-03-16T13:42:56.115Z,12.64
2019-03-16T13:47:00.998Z,12.56
2019-03-16T13:51:05.896Z,12.41
2019-03-16T13:55:11.232Z,12.24
2019-03-16T13:59:16.127Z,12.07
2019-03-16T14:03:21.319Z,11.79
2019-03-16T14:07:26.206Z,11.58
2019-03-16T14:11:31.105Z,11.47
2019-03-16T14:15:36.008Z,11.48
2019-03-16T14:19:40.913Z,11.60
2019-03-16T14:23:45.804Z,11.63
2019-03-16T14:27:50.696Z,11.59
2019-03-16T14:31:55.596Z,11.63
2019-03-16T14:36:00.535Z,11.54
2019-03-16T14:40:12.380Z,11.49
2019-03-16T14:44:15.918Z,11.43
2019-03-16T14:48:20.819Z,11.39
2019-03-16T14:52:25.714Z,11.31
2019-03-16T14:56:30.624Z,11.24
2019-03-16T15:00:38.817Z,11.24
2019-03-16T15:04:42.126Z,11.22
2019-03-16T15:08:47.007Z,11.21
2019-03-16T15:12:51.910Z,11.24
2019-03-16T15:16:56.809Z,11.31
2019-03-16T15:21:01.703Z,11.40
2019-03-16T15:25:11.158Z,11.67
2019-03-16T15:29:15.344Z,11.82
2019-03-16T15:33:20.271Z,11.85
2019-03-16T15:37:25.143Z,11.95
2019-03-16T15:41:30.041Z,11.88
2019-03-16T15:45:35.056Z,11.87
2019-03-16T15:49:39.891Z,11.83
2019-03-16T15:53:44.792Z,11.78
2019-03-16T15:57:49.697Z,11.63
2019-03-16T16:01:54.598Z,11.64
2019-03-16T16:05:59.504Z,11.70
2019-03-16T16:10:07.236Z,11.74
2019-03-16T16:14:12.159Z,11.71
2019-03-16T16:18:17.061Z,11.60
2019-03-16T16:22:21.958Z,11.55
2019-03-16T16:26:26.858Z,11.54
2019-03-16T16:30:31.745Z,11.52
2019-03-16T16:34:36.642Z,11.48
2019-03-16T16:38:41.541Z,11.43
2019-03-16T16:42:46.509Z,11.36
2019-03-16T16:46:51.414Z,11.33
2019-03-16T16:50:56.294Z,11.29
2019-03-16T16:55:01.212Z,11.28
2019-03-16T16:59:06.085Z,11.27
2019-03-16T17:03:10.991Z,11.21
2019-03-16T17:07:15.888Z,11.21
2019-03-16T17:11:20.776Z,11.12
2019-03-16T17:15:25.675Z,11.05
2019-03-16T17:19:30.567Z,10.96
2019-03-16T17:23:35.468Z,10.87
2019-03-16T17:27:41.428Z,10.81
2019-03-16T17:31:46.330Z,10.76
2019-03-16T17:35:51.219Z,10.72
2019-03-16T17:39:56.125Z,10.69
2019-03-16T17:44:01.026Z,10.63
2019-03-16T17:48:05.968Z,10.55
2019-03-16T17:52:10.809Z,10.48
2019-03-16T17:56:15.714Z,10.45
2019-03-16T18:00:20.879Z,10.41
2019-03-16T18:04:27.857Z,10.34
2019-03-16T18:08:32.383Z,10.28
2019-03-16T18:12:37.285Z,10.22
2019-03-16T18:16:42.180Z,10.17
2019-03-16T18:20:47.076Z,10.14
2019-03-16T18:24:51.976Z,10.07
2019-03-16T18:28:56.874Z,10.05
2019-03-16T18:33:01.795Z,9.98
2019-03-16T18:37:06.690Z,9.88
2019-03-16T18:41:11.577Z,9.80
2019-03-16T18:45:22.034Z,9.67
2019-03-16T18:49:26.927Z,9.58
2019-03-16T18:53:31.815Z,9.52
2019-03-16T18:57:36.724Z,9.50
2019-03-16T19:01:41.616Z,9.46
2019-03-16T19:05:49.357Z,9.38
2019-03-16T19:09:53.720Z,9.35
2019-03-16T19:13:58.678Z,9.32
2019-03-16T19:18:03.570Z,9.28
2019-03-16T19:22:11.414Z,9.28
2019-03-16T19:26:15.057Z,9.31
2019-03-16T19:30:21.019Z,9.36
2019-03-16T19:34:25.903Z,9.37
2019-03-16T19:38:30.801Z,9.38
2019-03-16T19:42:35.682Z,9.35
2019-03-16T19:46:40.572Z,9.35
2019-03-16T19:50:45.453Z,9.27
2019-03-16T19:54:50.341Z,9.20
2019-03-16T19:59:00.565Z,9.17
2019-03-16T20:03:01.821Z,9.08
2019-03-16T20:07:18.436Z,9.04
2019-03-16T20:11:13.302Z,9.03
2019-03-16T20:15:18.183Z,9.00
2019-03-16T20:19:23.081Z,9.05
2019-03-16T20:23:27.962Z,9.10
2019-03-16T20:27:32.855Z,9.11
2019-03-16T20:31:46.748Z,9.07
2019-03-16T20:35:44.323Z,9.00
2019-03-16T20:39:49.226Z,8.91
2019-03-16T20:43:54.134Z,8.87
2019-03-16T20:47:58.998Z,8.83
2019-03-16T20:52:03.891Z,8.81
2019-03-16T20:56:08.772Z,8.77
2019-03-16T21:00:17.811Z,8.69
2019-03-16T21:04:22.710Z,8.64
2019-03-16T21:08:27.601Z,8.61
2019-03-16T21:12:32.501Z,8.50
2019-03-16T21:16:37.382Z,8.45
2019-03-16T21:20:42.278Z,8.43
2019-03-16T21:24:47.170Z,8.41
2019-03-16T21:28:52.076Z,8.36
2019-03-16T21:32:56.970Z,8.30
2019-03-16T21:37:01.875Z,8.27
2019-03-16T21:41:06.749Z,8.25
2019-03-16T21:45:12.882Z,8.18
2019-03-16T21:49:17.769Z,8.13
2019-03-16T21:53:23.729Z,8.11
2019-03-16T21:57:28.784Z,8.01
2019-03-16T22:01:33.776Z,7.94
2019-03-16T22:05:38.674Z,7.87
2019-03-16T22:09:43.571Z,7.78
2019-03-16T22:13:48.461Z,7.72
2019-03-16T22:17:53.370Z,7.62
2019-03-16T22:21:58.312Z,7.60
2019-03-16T22:26:03.205Z,7.56
2019-03-16T22:30:10.615Z,7.56
2019-03-16T22:34:15.491Z,7.54
2019-03-16T22:38:20.368Z,7.47
2019-03-16T22:42:25.264Z,7.42
2019-03-16T22:46:30.157Z,7.35
2019-03-16T22:50:35.047Z,7.17
2019-03-16T22:54:39.947Z,7.13
2019-03-16T22:58:44.829Z,7.07
2019-03-16T23:02:49.798Z,7.00
2019-03-16T23:06:54.622Z,7.00
2019-03-16T23:10:59.512Z,7.21
2019-03-16T23:15:06.518Z,7.20
2019-03-16T23:19:11.389Z,7.20
2019-03-16T23:23:16.284Z,7.26
2019-03-16T23:27:21.162Z,7.35
2019-03-16T23:31:26.056Z,7.45
2019-03-16T23:35:30.943Z,7.60
2019-03-16T23:39:35.894Z,7.84
2019-03-16T23:43:40.792Z,8.10
2019-03-16T23:47:45.681Z,8.29
2019-03-16T23:51:50.575Z,8.36
2019-03-16T23:55:55.463Z,8.41
